Time;durP1;ratioP1;P1;durP2;ratioP2;P2;SDS_P1;SDS_P2;PMS_P1;PMS_P2;Temp;Humidity;BMP_temperature;BMP_pressure;BME280_temperature;BME280_humidity;BME280_pressure;Samples;Min_cycle;Max_cycle;Signal;HPM_P1;HPM_P2
2021/07/03 00:00:16;;;;;;;4.00;3.70;;;18.70;1.00;;;;;;5075820;28;20270;-64
2021/07/03 00:02:42;;;;;;;4.20;3.80;;;18.70;1.00;;;;;;5076019;28;20419;-64
2021/07/03 00:05:08;;;;;;;4.10;3.80;;;18.60;1.00;;;;;;5072828;28;20492;-63
2021/07/03 00:07:33;;;;;;;4.27;3.90;;;18.50;1.00;;;;;;5072197;28;20183;-63
2021/07/03 00:09:59;;;;;;;12.73;10.13;;;18.50;1.00;;;;;;5074642;28;20464;-64
2021/07/03 00:12:25;;;;;;;4.53;4.03;;;18.50;1.00;;;;;;5071372;28;20664;-64
2021/07/03 00:14:50;;;;;;;5.10;4.20;;;18.40;1.00;;;;;;5071326;28;20694;-63
2021/07/03 00:17:16;;;;;;;4.17;3.73;;;18.30;1.00;;;;;;5071285;28;20186;-63
2021/07/03 00:19:41;;;;;;;4.97;4.13;;;18.30;1.00;;;;;;5071603;28;20183;-64
2021/07/03 00:22:07;;;;;;;3.97;3.67;;;18.20;1.00;;;;;;5071559;28;20232;-64
2021/07/03 00:24:33;;;;;;;4.33;3.93;;;18.10;1.00;;;;;;5070153;28;20225;-65
2021/07/03 00:26:58;;;;;;;4.37;3.97;;;18.20;1.00;;;;;;5071358;28;20195;-63
2021/07/03 00:29:24;;;;;;;6.17;4.03;;;18.20;1.00;;;;;;5071854;28;20211;-65
2021/07/03 00:31:49;;;;;;;4.90;4.50;;;18.20;1.00;;;;;;5070373;28;20295;-62
2021/07/03 00:34:15;;;;;;;5.17;4.10;;;18.10;1.00;;;;;;5067369;28;20188;-63
2021/07/03 00:36:40;;;;;;;4.40;4.00;;;18.20;1.00;;;;;;5072026;28;20662;-63
2021/07/03 00:39:06;;;;;;;5.97;4.67;;;18.10;1.00;;;;;;5067419;28;20195;-63
2021/07/03 00:41:32;;;;;;;5.50;4.37;;;18.10;1.00;;;;;;5072843;28;20183;-63
2021/07/03 00:43:57;;;;;;;4.50;4.10;;;18.10;1.00;;;;;;5072364;28;20187;-62
2021/07/03 00:46:23;;;;;;;4.57;4.17;;;18.00;1.00;;;;;;5066281;28;20191;-62
2021/07/03 00:48:48;;;;;;;6.93;4.00;;;18.10;1.00;;;;;;5071041;28;20188;-62
2021/07/03 00:51:14;;;;;;;5.97;4.10;;;18.00;1.00;;;;;;5071916;28;20199;-63
2021/07/03 00:53:40;;;;;;;5.50;4.70;;;17.90;1.00;;;;;;5070712;28;20179;-63
2021/07/03 00:56:06;;;;;;;4.20;3.80;;;17.90;1.00;;;;;;5069797;28;20207;-64
2021/07/03 00:58:32;;;;;;;5.90;5.20;;;18.00;1.00;;;;;;5071401;28;20746;-64
2021/07/03 01:00:57;;;;;;;5.83;4.87;;;18.10;1.00;;;;;;5071812;28;20521;-63
2021/07/03 01:03:23;;;;;;;6.07;5.07;;;18.20;1.00;;;;;;5070407;28;20225;-63
2021/07/03 01:05:50;;;;;;;5.00;4.60;;;18.20;1.00;;;;;;5071859;28;20641;-63
2021/07/03 01:08:16;;;;;;;5.97;5.00;;;18.10;1.00;;;;;;5071701;28;20596;-62
2021/07/03 01:10:42;;;;;;;4.90;4.40;;;18.10;1.00;;;;;;5071247;28;20535;-61
2021/07/03 01:13:08;;;;;;;4.83;4.23;;;18.20;1.00;;;;;;5070823;28;20531;-63
2021/07/03 01:15:33;;;;;;;5.50;5.00;;;18.30;1.00;;;;;;5069829;28;20405;-63
2021/07/03 01:17:59;;;;;;;6.80;5.53;;;18.40;1.00;;;;;;5068938;28;20648;-64
2021/07/03 01:20:25;;;;;;;10.03;5.10;;;18.40;1.00;;;;;;5071413;28;20218;-63
2021/07/03 01:22:51;;;;;;;5.53;4.93;;;18.90;1.00;;;;;;5069963;28;20268;-64
2021/07/03 01:25:17;;;;;;;5.40;4.90;;;18.50;1.00;;;;;;5069705;28;20532;-62
2021/07/03 01:27:43;;;;;;;7.17;4.30;;;18.60;1.00;;;;;;5070992;28;20191;-63
2021/07/03 01:30:11;;;;;;;5.10;4.63;;;18.60;1.00;;;;;;5067255;28;20834;-63
2021/07/03 01:32:37;;;;;;;4.77;4.37;;;18.80;1.00;;;;;;5070972;28;20494;-62
2021/07/03 01:35:04;;;;;;;6.70;5.10;;;18.80;1.00;;;;;;5065427;28;20491;-63
2021/07/03 01:37:30;;;;;;;5.90;4.20;;;18.80;1.00;;;;;;5069589;28;20910;-64
2021/07/03 01:39:55;;;;;;;5.17;4.77;;;18.80;1.00;;;;;;5071071;28;20415;-62
2021/07/03 01:42:21;;;;;;;4.60;4.20;;;18.90;1.00;;;;;;5070996;28;20638;-63
2021/07/03 01:44:49;;;;;;;5.10;4.40;;;18.80;1.00;;;;;;5070392;28;20182;-64
2021/07/03 01:47:15;;;;;;;6.47;4.77;;;18.80;1.00;;;;;;5071056;28;20274;-63
2021/07/03 01:49:43;;;;;;;5.03;4.20;;;18.80;1.00;;;;;;5058700;28;21171;-62
2021/07/03 01:52:09;;;;;;;5.07;4.50;;;18.70;1.00;;;;;;5070631;28;20866;-63
2021/07/03 01:54:36;;;;;;;4.97;4.47;;;18.70;1.00;;;;;;5068316;28;20550;-62
2021/07/03 01:57:02;;;;;;;5.00;4.50;;;18.80;1.00;;;;;;5070705;28;20410;-63
2021/07/03 01:59:30;;;;;;;4.87;4.50;;;18.60;1.00;;;;;;5070875;28;20430;-63
2021/07/03 02:01:56;;;;;;;5.17;4.67;;;18.60;1.00;;;;;;5070106;28;20187;-65
2021/07/03 02:04:22;;;;;;;5.00;4.60;;;18.60;1.00;;;;;;5069309;28;20449;-63
2021/07/03 02:06:48;;;;;;;8.20;5.33;;;18.70;1.00;;;;;;5066606;28;20442;-64
2021/07/03 02:09:15;;;;;;;6.67;4.77;;;18.70;1.00;;;;;;5070343;28;20408;-63
2021/07/03 02:11:41;;;;;;;6.20;5.53;;;18.70;1.00;;;;;;5069900;28;20215;-62
2021/07/03 02:14:07;;;;;;;6.00;5.33;;;18.70;1.00;;;;;;5068142;28;20509;-63
2021/07/03 02:16:34;;;;;;;9.60;5.23;;;18.70;1.00;;;;;;5070445;28;20184;-65
2021/07/03 02:19:01;;;;;;;6.00;5.47;;;18.80;1.00;;;;;;5066894;28;20454;-63
2021/07/03 02:21:26;;;;;;;6.10;5.40;;;18.70;1.00;;;;;;5069789;28;20528;-64
2021/07/03 02:23:52;;;;;;;9.03;5.30;;;18.70;1.00;;;;;;5068112;28;20859;-65
2021/07/03 02:26:17;;;;;;;5.30;4.80;;;18.70;1.00;;;;;;5070304;28;20183;-63
2021/07/03 02:28:43;;;;;;;7.00;4.67;;;18.60;1.00;;;;;;5066980;28;20215;-65
2021/07/03 02:31:09;;;;;;;5.30;4.80;;;18.60;1.00;;;;;;5069639;28;20383;-63
2021/07/03 02:33:34;;;;;;;5.93;5.30;;;18.60;1.00;;;;;;5067972;28;20195;-63
2021/07/03 02:36:00;;;;;;;6.47;5.30;;;18.60;1.00;;;;;;5069270;28;20251;-63
2021/07/03 02:38:25;;;;;;;8.03;6.20;;;18.60;1.00;;;;;;5070008;28;20278;-65
2021/07/03 02:40:51;;;;;;;6.03;5.40;;;21.00;1.00;;;;;;5069975;28;20215;-66
2021/07/03 02:43:17;;;;;;;6.20;5.60;;;18.60;1.00;;;;;;5068619;28;20183;-62
2021/07/03 02:45:42;;;;;;;7.30;5.33;;;18.50;1.00;;;;;;5068256;28;20175;-63
2021/07/03 02:48:08;;;;;;;5.67;5.00;;;18.50;1.00;;;;;;5070014;28;20184;-62
2021/07/03 02:50:33;;;;;;;6.80;5.70;;;18.50;1.00;;;;;;5067957;28;20337;-63
2021/07/03 02:52:59;;;;;;;6.50;5.60;;;18.50;1.00;;;;;;5070752;28;20212;-63
2021/07/03 02:55:27;;;;;;;7.50;5.70;;;18.50;1.00;;;;;;5069489;28;20261;-64
2021/07/03 02:57:52;;;;;;;5.87;5.30;;;18.40;1.00;;;;;;5069118;28;20183;-64
2021/07/03 03:00:19;;;;;;;5.37;4.87;;;18.40;1.00;;;;;;5069662;28;20822;-64
2021/07/03 03:02:44;;;;;;;6.50;5.70;;;18.40;1.00;;;;;;5066015;28;20183;-65
2021/07/03 03:05:12;;;;;;;9.70;5.83;;;18.50;1.00;;;;;;5068900;28;20526;-63
2021/07/03 03:07:39;;;;;;;7.10;6.33;;;18.50;1.00;;;;;;5069678;28;20601;-63
2021/07/03 03:10:07;;;;;;;7.07;5.93;;;18.50;1.00;;;;;;5068906;28;20449;-62
2021/07/03 03:12:32;;;;;;;8.60;5.10;;;18.60;1.00;;;;;;5069655;28;20795;-62
2021/07/03 03:15:00;;;;;;;5.13;4.60;;;18.60;1.00;;;;;;5069860;28;20437;-62
2021/07/03 03:17:25;;;;;;;11.33;5.97;;;18.60;1.00;;;;;;5068103;28;20195;-64
2021/07/03 03:19:51;;;;;;;8.30;5.83;;;18.60;1.00;;;;;;5065987;28;20511;-62
2021/07/03 03:22:16;;;;;;;9.77;5.20;;;18.70;1.00;;;;;;5069651;28;20183;-62
2021/07/03 03:24:42;;;;;;;6.97;6.00;;;18.70;1.00;;;;;;5068525;28;20245;-63
2021/07/03 03:27:08;;;;;;;7.27;5.90;;;18.80;1.00;;;;;;5069794;28;20215;-62
2021/07/03 03:29:33;;;;;;;13.57;6.40;;;18.80;1.00;;;;;;5069270;28;20233;-63
2021/07/03 03:31:59;;;;;;;11.80;5.23;;;18.60;1.00;;;;;;5069331;28;20661;-63
2021/07/03 03:34:25;;;;;;;5.70;5.10;;;18.50;1.00;;;;;;5066785;28;20646;-62
2021/07/03 03:36:50;;;;;;;6.43;5.80;;;18.40;1.00;;;;;;5067634;28;20572;-63
2021/07/03 03:39:16;;;;;;;6.93;5.07;;;18.40;1.00;;;;;;5069628;28;20186;-62
2021/07/03 03:41:41;;;;;;;8.37;6.00;;;18.40;1.00;;;;;;5068153;28;20655;-62
2021/07/03 03:44:07;;;;;;;6.37;5.63;;;18.60;1.00;;;;;;5063463;28;20192;-62
2021/07/03 03:46:32;;;;;;;5.63;5.17;;;18.60;1.00;;;;;;5073197;28;20478;-63
2021/07/03 03:48:58;;;;;;;5.50;5.00;;;18.60;1.00;;;;;;5072359;28;20198;-63
2021/07/03 03:51:24;;;;;;;6.50;5.80;;;18.70;1.00;;;;;;5072670;28;20218;-64
2021/07/03 03:53:49;;;;;;;11.93;6.13;;;18.70;1.00;;;;;;5067441;28;20210;-63
2021/07/03 03:56:15;;;;;;;6.20;5.60;;;18.80;1.00;;;;;;5072651;28;20390;-64
2021/07/03 03:58:41;;;;;;;9.90;5.60;;;18.80;1.00;;;;;;5072820;28;20633;-63
2021/07/03 04:01:06;;;;;;;8.03;5.57;;;18.90;1.00;;;;;;5069188;28;20186;-63
2021/07/03 04:03:32;;;;;;;7.00;5.00;;;19.00;1.00;;;;;;5072903;28;20183;-65
2021/07/03 04:05:57;;;;;;;7.30;6.00;;;19.00;1.00;;;;;;5072517;28;20176;-62
2021/07/03 04:08:23;;;;;;;6.20;4.93;;;19.00;1.00;;;;;;5072686;28;20755;-63
2021/07/03 04:10:48;;;;;;;6.23;5.63;;;19.10;1.00;;;;;;5071402;28;20219;-63
2021/07/03 04:13:14;;;;;;;8.57;6.10;;;19.10;1.00;;;;;;5073213;28;20185;-63
2021/07/03 04:15:39;;;;;;;7.00;6.00;;;19.20;1.00;;;;;;5072252;28;20186;-63
2021/07/03 04:18:05;;;;;;;6.20;5.53;;;19.30;1.00;;;;;;5072804;28;20694;-62
2021/07/03 04:20:31;;;;;;;10.33;6.30;;;19.30;1.00;;;;;;5068945;28;20188;-62
2021/07/03 04:22:56;;;;;;;8.57;6.17;;;19.40;1.00;;;;;;5071276;28;20234;-63
2021/07/03 04:25:22;;;;;;;8.43;6.50;;;19.50;1.00;;;;;;5072918;28;20223;-63
2021/07/03 04:27:48;;;;;;;8.80;6.87;;;19.70;1.00;;;;;;5072340;28;20211;-64
2021/07/03 04:30:16;;;;;;;9.10;5.87;;;19.80;1.00;;;;;;5072121;28;20878;-62
2021/07/03 04:32:42;;;;;;;9.00;5.67;;;19.90;1.00;;;;;;5071744;28;20433;-65
2021/07/03 04:35:08;;;;;;;9.17;6.53;;;20.00;1.00;;;;;;5070438;28;20544;-63
2021/07/03 04:37:34;;;;;;;7.30;6.10;;;20.00;1.00;;;;;;5071821;28;20175;-63
2021/07/03 04:40:01;;;;;;;7.83;6.60;;;19.90;1.00;;;;;;5071681;28;20451;-63
2021/07/03 04:42:26;;;;;;;8.20;6.50;;;19.90;1.00;;;;;;5071516;28;20433;-63
2021/07/03 04:44:52;;;;;;;7.33;6.27;;;19.80;1.00;;;;;;5069171;28;20826;-63
2021/07/03 04:47:18;;;;;;;8.23;6.37;;;19.70;1.00;;;;;;5071774;28;20184;-63
2021/07/03 04:49:43;;;;;;;7.43;6.40;;;19.70;1.00;;;;;;5069969;28;20452;-63
2021/07/03 04:52:09;;;;;;;7.70;6.90;;;19.70;1.00;;;;;;5070175;28;20290;-63
2021/07/03 04:54:34;;;;;;;8.00;6.97;;;19.80;1.00;;;;;;5069820;28;20197;-63
2021/07/03 04:57:11;;;;;;;7.43;6.13;;;19.80;1.00;;;;;;5071289;28;20266;-62
2021/07/03 04:59:45;;;;;;;7.60;6.73;;;19.70;1.00;;;;;;5071833;28;20611;-62
2021/07/03 05:02:13;;;;;;;8.40;6.70;;;19.50;1.00;;;;;;5070050;28;20727;-63
2021/07/03 05:04:40;;;;;;;9.37;6.10;;;19.40;1.00;;;;;;5071352;28;20412;-64
2021/07/03 05:07:05;;;;;;;7.93;7.13;;;19.40;1.00;;;;;;5071424;28;20515;-63
2021/07/03 05:09:32;;;;;;;7.20;6.37;;;19.60;1.00;;;;;;5070692;28;20509;-64
2021/07/03 05:11:58;;;;;;;7.10;5.40;;;19.80;1.00;;;;;;5068582;28;20226;-62
2021/07/03 05:14:24;;;;;;;6.60;6.00;;;19.90;1.00;;;;;;5069586;28;20441;-62
2021/07/03 05:16:49;;;;;;;7.97;6.17;;;20.00;1.00;;;;;;5070462;28;20420;-64
2021/07/03 05:19:15;;;;;;;7.47;6.50;;;20.10;1.00;;;;;;5068922;28;20424;-63
2021/07/03 05:21:41;;;;;;;7.90;6.03;;;20.00;1.00;;;;;;5069282;28;20279;-62
2021/07/03 05:24:07;;;;;;;8.93;6.23;;;20.10;1.00;;;;;;5070519;28;20210;-62
2021/07/03 05:26:33;;;;;;;8.60;5.57;;;20.10;1.00;;;;;;5069704;28;20436;-63
2021/07/03 05:28:58;;;;;;;7.87;6.07;;;20.00;1.00;;;;;;5070709;28;20505;-65
2021/07/03 05:31:24;;;;;;;5.60;5.10;;;20.00;1.00;;;;;;5068807;28;20214;-62
2021/07/03 05:33:49;;;;;;;7.37;5.60;;;20.00;1.00;;;;;;5070464;28;20362;-64
2021/07/03 05:36:15;;;;;;;8.43;6.30;;;20.10;1.00;;;;;;5071152;28;20175;-62
2021/07/03 05:38:42;;;;;;;7.13;6.40;;;20.20;1.00;;;;;;5070693;28;20183;-63
2021/07/03 05:41:08;;;;;;;5.67;5.10;;;20.10;1.00;;;;;;5066563;28;20179;-65
2021/07/03 05:43:35;;;;;;;6.97;6.20;;;20.20;1.00;;;;;;5070954;28;20468;-64
2021/07/03 05:46:01;;;;;;;6.70;6.10;;;20.30;1.00;;;;;;5070740;28;20845;-63
2021/07/03 05:48:26;;;;;;;8.80;6.40;;;20.40;1.00;;;;;;5070257;28;20480;-63
2021/07/03 05:50:52;;;;;;;9.80;6.00;;;20.50;1.00;;;;;;5071026;28;20672;-64
2021/07/03 05:53:17;;;;;;;7.53;6.83;;;20.50;1.00;;;;;;5063521;28;20209;-64
2021/07/03 05:55:43;;;;;;;8.83;7.47;;;20.60;1.00;;;;;;5070763;28;20186;-63
2021/07/03 05:58:08;;;;;;;12.50;6.93;;;20.40;1.00;;;;;;5068701;28;20183;-63
2021/07/03 06:00:34;;;;;;;7.20;6.50;;;20.70;1.00;;;;;;5069762;28;20668;-61
2021/07/03 06:02:59;;;;;;;9.03;7.50;;;20.50;1.00;;;;;;5070434;28;20191;-64
2021/07/03 06:05:25;;;;;;;11.10;6.20;;;20.40;1.00;;;;;;5069649;28;20198;-63
2021/07/03 06:07:50;;;;;;;7.70;6.90;;;20.30;1.00;;;;;;5066616;28;20186;-63
2021/07/03 06:10:16;;;;;;;8.60;6.80;;;20.40;1.00;;;;;;5067048;28;20187;-64
2021/07/03 06:12:42;;;;;;;8.93;7.50;;;20.50;1.00;;;;;;5070443;28;20312;-64
2021/07/03 06:15:09;;;;;;;8.70;6.73;;;20.40;1.00;;;;;;5069589;28;20217;-63
2021/07/03 06:17:35;;;;;;;8.60;7.43;;;20.20;1.00;;;;;;5070338;28;20962;-63
2021/07/03 06:20:02;;;;;;;9.43;6.70;;;20.20;1.00;;;;;;5068864;28;20428;-63
2021/07/03 06:22:28;;;;;;;9.20;7.40;;;20.40;1.00;;;;;;5069679;28;20408;-63
2021/07/03 06:24:53;;;;;;;8.07;7.30;;;20.40;1.00;;;;;;5068280;28;20844;-63
2021/07/03 06:27:19;;;;;;;10.30;7.80;;;20.60;1.00;;;;;;5066842;28;20198;-63
2021/07/03 06:29:45;;;;;;;8.83;7.57;;;20.60;1.00;;;;;;5069866;28;20236;-62
2021/07/03 06:32:10;;;;;;;8.57;6.70;;;20.70;1.00;;;;;;5067821;28;20211;-62
2021/07/03 06:34:36;;;;;;;9.10;6.87;;;20.70;1.00;;;;;;5069346;28;20548;-63
2021/07/03 06:37:02;;;;;;;10.43;7.73;;;20.60;1.00;;;;;;5070251;28;20171;-64
2021/07/03 06:39:28;;;;;;;8.77;7.60;;;20.40;1.00;;;;;;5068645;28;20184;-61
2021/07/03 06:41:53;;;;;;;7.43;6.20;;;20.30;1.00;;;;;;5068955;28;20460;-65
2021/07/03 06:44:19;;;;;;;8.73;7.37;;;20.20;1.00;;;;;;5066628;28;20645;-64
2021/07/03 06:46:47;;;;;;;8.17;7.43;;;20.60;1.00;;;;;;5051900;28;20202;-63
2021/07/03 06:49:14;;;;;;;8.30;7.10;;;20.60;1.00;;;;;;5067935;28;20204;-63
2021/07/03 06:51:40;;;;;;;8.57;6.73;;;20.70;1.00;;;;;;5068023;28;20807;-64
2021/07/03 06:54:06;;;;;;;11.43;7.40;;;20.80;1.00;;;;;;5063376;28;20463;-65
2021/07/03 06:56:32;;;;;;;11.87;6.83;;;21.20;1.00;;;;;;5067075;28;20762;-63
2021/07/03 06:58:57;;;;;;;7.97;6.13;;;21.40;1.00;;;;;;5067395;28;20445;-63
2021/07/03 07:01:23;;;;;;;8.80;7.20;;;21.70;1.00;;;;;;5069174;28;20893;-65
2021/07/03 07:03:49;;;;;;;10.33;6.83;;;21.60;1.00;;;;;;5067629;28;20189;-64
2021/07/03 07:06:14;;;;;;;7.70;6.87;;;21.70;1.00;;;;;;5070055;28;20207;-63
2021/07/03 07:08:40;;;;;;;9.63;6.77;;;21.80;1.00;;;;;;5069306;28;20273;-64
2021/07/03 07:11:05;;;;;;;8.87;6.87;;;21.90;1.00;;;;;;5067132;28;20210;-65
2021/07/03 07:13:31;;;;;;;8.73;7.77;;;22.10;1.00;;;;;;5069635;28;20187;-64
2021/07/03 07:15:57;;;;;;;8.53;7.20;;;22.20;1.00;;;;;;5069306;28;20190;-66
2021/07/03 07:18:22;;;;;;;7.20;6.50;;;22.20;1.00;;;;;;5067878;28;20187;-64
2021/07/03 07:20:48;;;;;;;9.07;7.77;;;21.90;1.00;;;;;;5072107;28;20190;-68
2021/07/03 07:23:14;;;;;;;8.40;7.43;;;22.00;1.00;;;;;;5073884;28;20190;-65
2021/07/03 07:25:40;;;;;;;8.80;7.90;;;21.70;1.00;;;;;;5073495;28;20644;-65
2021/07/03 07:28:06;;;;;;;7.70;6.90;;;21.70;1.00;;;;;;5073863;28;20493;-62
2021/07/03 07:30:32;;;;;;;11.80;9.00;;;21.70;1.00;;;;;;5073285;28;20246;-63
2021/07/03 07:32:57;;;;;;;8.40;7.60;;;21.50;1.00;;;;;;5073420;28;20211;-63
2021/07/03 07:35:23;;;;;;;9.47;7.67;;;21.50;1.00;;;;;;5072064;28;20583;-63
2021/07/03 07:37:48;;;;;;;7.50;6.50;;;21.60;1.00;;;;;;5072442;28;20183;-64
2021/07/03 07:40:15;;;;;;;8.53;7.73;;;21.80;1.00;;;;;;5073750;28;20195;-62
2021/07/03 07:42:40;;;;;;;9.50;7.73;;;22.10;1.00;;;;;;5071702;28;20206;-63
2021/07/03 07:45:07;;;;;;;8.77;7.10;;;22.20;1.00;;;;;;5073014;28;20429;-63
2021/07/03 07:47:33;;;;;;;8.07;6.50;;;22.40;1.00;;;;;;5073423;28;20171;-62
2021/07/03 07:49:59;;;;;;;9.00;7.27;;;22.60;1.00;;;;;;5073090;28;20473;-63
2021/07/03 07:52:33;;;;;;;8.50;7.30;;;22.60;1.00;;;;;;5073084;28;20254;-64
2021/07/03 07:55:00;;;;;;;9.23;7.00;;;22.40;1.00;;;;;;5072265;28;20217;-62
2021/07/03 07:57:26;;;;;;;7.33;6.50;;;22.50;1.00;;;;;;5072715;28;20430;-62
2021/07/03 07:59:52;;;;;;;6.80;6.10;;;22.70;1.00;;;;;;5072653;28;20429;-62
2021/07/03 08:02:17;;;;;;;7.47;6.23;;;22.90;1.00;;;;;;5072500;28;20189;-64
2021/07/03 08:04:43;;;;;;;8.00;7.20;;;22.80;1.00;;;;;;5071900;28;20226;-63
2021/07/03 08:07:09;;;;;;;8.03;5.90;;;23.00;1.00;;;;;;5072059;28;20612;-62
2021/07/03 08:09:35;;;;;;;7.63;6.83;;;23.20;1.00;;;;;;5072577;28;20195;-64
2021/07/03 08:12:00;;;;;;;8.80;6.00;;;23.30;1.00;;;;;;5072026;28;20797;-62
2021/07/03 08:14:26;;;;;;;7.13;6.47;;;23.30;1.00;;;;;;5072969;28;20247;-62
2021/07/03 08:16:52;;;;;;;7.07;6.37;;;23.40;1.00;;;;;;5072193;28;20236;-61
2021/07/03 08:19:17;;;;;;;8.63;6.00;;;23.40;1.00;;;;;;5072237;28;20186;-62
2021/07/03 08:21:44;;;;;;;6.83;6.00;;;23.40;1.00;;;;;;5072297;28;20189;-62
2021/07/03 08:24:10;;;;;;;7.53;6.83;;;23.60;1.00;;;;;;5071122;28;20660;-62
2021/07/03 08:26:36;;;;;;;6.80;6.20;;;23.70;1.00;;;;;;5072335;28;20913;-62
2021/07/03 08:29:02;;;;;;;7.33;6.33;;;23.70;1.00;;;;;;5071314;28;20455;-61
2021/07/03 08:31:28;;;;;;;6.77;6.07;;;23.50;1.00;;;;;;5070633;28;20259;-62
2021/07/03 08:33:54;;;;;;;7.00;5.70;;;23.60;1.00;;;;;;5072431;28;20442;-62
2021/07/03 08:36:19;;;;;;;5.87;5.30;;;23.90;1.00;;;;;;5071786;28;20258;-63
2021/07/03 08:38:45;;;;;;;6.87;6.13;;;24.20;1.00;;;;;;5072149;28;20533;-63
2021/07/03 08:41:12;;;;;;;6.70;6.03;;;24.40;1.00;;;;;;5071820;28;20266;-62
2021/07/03 08:43:49;;;;;;;6.80;6.10;;;24.30;1.00;;;;;;5071970;28;20256;-62
2021/07/03 08:46:21;;;;;;;9.47;5.83;;;24.20;1.00;;;;;;5072310;28;20415;-62
2021/07/03 08:48:52;;;;;;;6.27;5.67;;;24.00;1.00;;;;;;5069931;28;20441;-64
2021/07/03 08:51:18;;;;;;;6.00;5.50;;;24.20;1.00;;;;;;5071868;28;20726;-63
2021/07/03 08:53:44;;;;;;;6.23;5.40;;;23.90;1.00;;;;;;5072291;28;20420;-61
2021/07/03 08:56:09;;;;;;;6.10;5.50;;;24.00;1.00;;;;;;5072486;28;20911;-64
2021/07/03 08:58:35;;;;;;;6.50;5.93;;;24.10;1.00;;;;;;5071946;28;20456;-62
2021/07/03 09:01:04;;;;;;;5.23;4.83;;;24.60;1.00;;;;;;5072143;28;20186;-63
2021/07/03 09:03:30;;;;;;;5.93;5.33;;;25.00;1.00;;;;;;5071359;28;20513;-61
2021/07/03 09:05:57;;;;;;;7.23;5.57;;;25.10;1.00;;;;;;5071874;28;20442;-62
2021/07/03 09:08:25;;;;;;;7.47;5.27;;;25.00;1.00;;;;;;5071428;28;20229;-62
2021/07/03 09:11:05;;;;;;;7.47;5.60;;;24.70;1.00;;;;;;5071687;28;20465;-62
2021/07/03 09:13:32;;;;;;;5.30;4.90;;;24.30;1.00;;;;;;5070819;28;20452;-62
2021/07/03 09:15:58;;;;;;;5.77;5.23;;;24.50;1.00;;;;;;5070380;28;20915;-61
2021/07/03 09:18:27;;;;;;;5.07;4.60;;;24.30;1.00;;;;;;5071635;28;20476;-62
2021/07/03 09:20:55;;;;;;;5.67;5.13;;;24.10;1.00;;;;;;5070603;28;20449;-61
2021/07/03 09:23:30;;;;;;;5.83;5.33;;;23.90;1.00;;;;;;5071204;28;20428;-62
2021/07/03 09:26:07;;;;;;;6.27;5.67;;;24.10;1.00;;;;;;5072040;28;20445;-63
2021/07/03 09:28:39;;;;;;;6.10;5.50;;;24.30;1.00;;;;;;5072092;28;20436;-65
2021/07/03 09:31:06;;;;;;;5.70;5.30;;;24.40;1.00;;;;;;5071335;28;20950;-63
2021/07/03 09:33:36;;;;;;;5.73;5.23;;;24.80;1.00;;;;;;5071163;28;20886;-61
2021/07/03 09:36:26;;;;;;;7.20;5.47;;;25.20;1.00;;;;;;5072074;28;20945;-62
2021/07/03 09:38:53;;;;;;;6.30;5.70;;;25.50;1.00;;;;;;5061361;28;20791;-62
2021/07/03 09:41:29;;;;;;;6.40;5.60;;;25.60;1.00;;;;;;5071896;28;20452;-63
2021/07/03 09:44:09;;;;;;;5.90;5.30;;;25.60;1.00;;;;;;5070897;28;20529;-60
2021/07/03 09:46:46;;;;;;;5.87;5.33;;;25.50;1.00;;;;;;5071343;28;20732;-62
2021/07/03 09:49:17;;;;;;;6.00;5.50;;;25.20;1.00;;;;;;5070228;28;20443;-62
2021/07/03 09:51:46;;;;;;;5.73;5.23;;;25.30;1.00;;;;;;5070988;28;20490;-61
2021/07/03 09:54:13;;;;;;;6.53;5.77;;;25.30;1.00;;;;;;5071065;28;20457;-62
2021/07/03 09:56:40;;;;;;;6.07;5.47;;;25.30;1.00;;;;;;5071003;28;20722;-62
2021/07/03 09:59:07;;;;;;;4.63;4.33;;;24.80;1.00;;;;;;5069773;28;20456;-62
2021/07/03 10:01:32;;;;;;;5.90;5.40;;;24.90;1.00;;;;;;5071162;28;20493;-61
2021/07/03 10:04:01;;;;;;;5.93;5.40;;;25.00;1.00;;;;;;5070766;28;20441;-62
2021/07/03 10:06:48;;;;;;;6.50;6.00;;;25.40;1.00;;;;;;5071300;28;20420;-61
2021/07/03 10:09:29;;;;;;;5.67;5.17;;;25.30;1.00;;;;;;5070308;28;20416;-62
2021/07/03 10:11:59;;;;;;;5.70;5.20;;;25.30;1.00;;;;;;5070702;28;20956;-62
2021/07/03 10:14:25;;;;;;;6.90;6.20;;;25.60;1.00;;;;;;5070758;28;20436;-63
2021/07/03 10:17:01;;;;;;;6.70;5.17;;;25.80;1.00;;;;;;5069934;28;20408;-61
2021/07/03 10:19:38;;;;;;;6.17;5.57;;;25.80;1.00;;;;;;5069170;28;20440;-62
2021/07/03 10:22:29;;;;;;;8.93;5.50;;;25.80;1.00;;;;;;5069053;28;20442;-61
2021/07/03 10:24:58;;;;;;;6.30;5.70;;;25.30;1.00;;;;;;5069269;28;20481;-61
2021/07/03 10:27:26;;;;;;;6.20;5.60;;;24.80;1.00;;;;;;5068647;28;20416;-63
2021/07/03 10:29:54;;;;;;;6.37;5.77;;;24.50;1.00;;;;;;5068968;28;20436;-60
2021/07/03 10:32:30;;;;;;;5.80;5.30;;;24.50;1.00;;;;;;5069156;28;20519;-63
2021/07/03 10:35:11;;;;;;;6.10;5.50;;;24.50;1.00;;;;;;5069710;28;20416;-61
2021/07/03 10:37:36;;;;;;;5.77;5.27;;;24.90;1.00;;;;;;5070114;28;20408;-65
2021/07/03 10:40:13;;;;;;;5.37;4.90;;;25.10;1.00;;;;;;5069522;28;20424;-63
2021/07/03 10:42:39;;;;;;;6.23;5.67;;;25.60;1.00;;;;;;5070083;28;20594;-60
2021/07/03 10:45:16;;;;;;;9.00;5.80;;;25.60;1.00;;;;;;5069561;28;20412;-61
2021/07/03 10:47:42;;;;;;;6.07;5.50;;;25.50;1.00;;;;;;5069911;28;20202;-63
2021/07/03 10:50:22;;;;;;;7.20;6.50;;;25.30;1.00;;;;;;5070003;28;20457;-63
2021/07/03 10:52:48;;;;;;;6.00;5.50;;;25.60;1.00;;;;;;5066430;28;20431;-62
2021/07/03 10:55:26;;;;;;;6.03;5.60;;;25.70;1.00;;;;;;5068787;28;20968;-63
2021/07/03 10:57:51;;;;;;;5.53;5.13;;;25.70;1.00;;;;;;5067903;28;20422;-64
2021/07/03 11:00:22;;;;;;;6.47;5.97;;;25.90;1.00;;;;;;5073928;28;20438;-62
2021/07/03 11:02:48;;;;;;;6.13;5.60;;;25.60;1.00;;;;;;5070489;28;20180;-62
2021/07/03 11:05:14;;;;;;;6.57;6.03;;;25.40;1.00;;;;;;5068496;28;20481;-62
2021/07/03 11:07:42;;;;;;;6.07;5.47;;;25.20;1.00;;;;;;5070341;28;20652;-61
2021/07/03 11:10:09;;;;;;;5.77;5.27;;;25.00;1.00;;;;;;5069943;28;20412;-64
2021/07/03 11:12:45;;;;;;;6.13;5.40;;;25.10;1.00;;;;;;5068495;28;20521;-63
2021/07/03 11:15:17;;;;;;;6.33;5.73;;;25.50;1.00;;;;;;5069668;28;20469;-63
2021/07/03 11:17:42;;;;;;;5.57;5.07;;;25.40;1.00;;;;;;5070140;28;20486;-63
2021/07/03 11:20:09;;;;;;;5.83;5.33;;;25.20;1.00;;;;;;5070070;28;20925;-62
2021/07/03 11:22:42;;;;;;;6.50;6.00;;;25.20;1.00;;;;;;5068134;28;20189;-63
2021/07/03 11:25:09;;;;;;;5.67;5.27;;;25.30;1.00;;;;;;5068116;28;20983;-62
2021/07/03 11:27:36;;;;;;;6.10;5.23;;;25.50;1.00;;;;;;5067987;28;20791;-64
2021/07/03 11:30:15;;;;;;;5.63;5.13;;;26.00;1.00;;;;;;5068276;28;20826;-61
2021/07/03 11:32:53;;;;;;;5.47;4.97;;;26.00;1.00;;;;;;5073346;28;20476;-62
2021/07/03 11:35:19;;;;;;;6.80;5.70;;;25.90;1.00;;;;;;5069600;28;20433;-61
2021/07/03 11:37:45;;;;;;;5.40;4.90;;;26.00;1.00;;;;;;5069786;28;20424;-64
2021/07/03 11:40:17;;;;;;;6.17;5.57;;;26.20;1.00;;;;;;5070464;28;20510;-60
2021/07/03 11:42:45;;;;;;;6.10;5.57;;;26.20;1.00;;;;;;5070415;28;20408;-61
2021/07/03 11:45:14;;;;;;;6.70;6.10;;;26.20;1.00;;;;;;5069947;28;20511;-61
2021/07/03 11:47:46;;;;;;;5.30;4.90;;;25.90;1.00;;;;;;5069474;28;20435;-62
2021/07/03 11:50:28;;;;;;;5.57;5.07;;;26.00;1.00;;;;;;5069579;28;20586;-61
2021/07/03 11:52:58;;;;;;;5.67;5.00;;;27.60;1.00;;;;;;5070017;28;20408;-63
2021/07/03 11:55:27;;;;;;;6.27;5.67;;;26.20;1.00;;;;;;5069831;28;20755;-61
2021/07/03 11:57:54;;;;;;;6.27;5.30;;;26.10;1.00;;;;;;5069773;28;20432;-61
2021/07/03 12:00:25;;;;;;;6.10;5.50;;;25.90;1.00;;;;;;5069669;28;20477;-62
2021/07/03 12:02:51;;;;;;;6.10;5.27;;;25.90;1.00;;;;;;5068313;28;20437;-62
2021/07/03 12:05:32;;;;;;;6.10;5.60;;;26.30;1.00;;;;;;5069632;28;20448;-61
2021/07/03 12:08:16;;;;;;;6.50;5.90;;;26.60;1.00;;;;;;5072668;28;20441;-61
2021/07/03 12:10:50;;;;;;;7.50;5.80;;;26.40;1.00;;;;;;5070197;28;20444;-63
2021/07/03 12:13:24;;;;;;;5.50;5.00;;;26.20;1.00;;;;;;5072748;28;20464;-60
2021/07/03 12:16:10;;;;;;;6.63;5.60;;;26.00;1.00;;;;;;5072398;28;20829;-60
2021/07/03 12:18:42;;;;;;;7.40;4.63;;;26.20;1.00;;;;;;5070694;28;20506;-61
2021/07/03 12:21:20;;;;;;;6.33;5.73;;;26.20;1.00;;;;;;5072915;28;20444;-62
2021/07/03 12:23:45;;;;;;;5.30;4.90;;;26.20;1.00;;;;;;5072141;28;20945;-61
2021/07/03 12:26:11;;;;;;;6.47;5.73;;;26.60;1.00;;;;;;5072188;28;20533;-61
2021/07/03 12:28:38;;;;;;;6.47;5.77;;;26.70;1.00;;;;;;5072824;28;20248;-60
2021/07/03 12:31:06;;;;;;;5.87;5.37;;;27.00;1.00;;;;;;5072600;28;20448;-60
2021/07/03 12:33:32;;;;;;;5.43;5.03;;;27.00;1.00;;;;;;5071949;28;20419;-61
2021/07/03 12:35:57;;;;;;;6.07;5.57;;;27.80;1.00;;;;;;5070922;28;20461;-60
2021/07/03 12:38:28;;;;;;;5.70;5.20;;;26.20;1.00;;;;;;5071517;28;20176;-60
2021/07/03 12:40:54;;;;;;;6.47;5.80;;;25.90;1.00;;;;;;5071925;28;20182;-62
2021/07/03 12:43:34;;;;;;;5.93;5.43;;;25.80;1.00;;;;;;5068375;28;20510;-60
2021/07/03 12:46:06;;;;;;;7.27;5.77;;;25.60;1.00;;;;;;5070924;28;20579;-61
2021/07/03 12:48:40;;;;;;;6.87;6.23;;;25.80;1.00;;;;;;5072164;28;20445;-61
2021/07/03 12:51:09;;;;;;;5.10;4.60;;;26.00;1.00;;;;;;5071880;28;20464;-61
2021/07/03 12:53:36;;;;;;;5.80;5.20;;;25.70;1.00;;;;;;5072122;28;20517;-62
2021/07/03 12:56:06;;;;;;;6.20;5.60;;;25.50;1.00;;;;;;5070465;28;20441;-60